Time;durP1;ratioP1;P1;durP2;ratioP2;P2;SDS_P1;SDS_P2;PMS_P1;PMS_P2;Temp;Humidity;BMP_temperature;BMP_pressure;BME280_temperature;BME280_humidity;BME280_pressure;Samples;Min_cycle;Max_cycle;Signal;HPM_P1;HPM_P2
2023/01/01 00:01:30;;;;;;;191.25;178.98;;;13.60;99.90;;;;;;4971499;28;20054;-76
2023/01/01 00:03:58;;;;;;;237.60;221.18;;;13.70;99.90;;;;;;4970931;28;20121;-75
2023/01/01 00:06:24;;;;;;;344.17;321.50;;;13.70;99.90;;;;;;4958198;28;20057;-77
2023/01/01 00:10:26;;;;;;;273.25;253.82;;;13.70;99.90;;;;;;5013071;28;20042;-76
2023/01/01 00:11:36;;;;;;;223.52;207.70;;;13.70;99.90;;;;;;4971067;28;20717;-76
2023/01/01 00:14:01;;;;;;;200.40;187.43;;;13.80;99.90;;;;;;4970931;28;20126;-76
2023/01/01 00:16:27;;;;;;;358.25;332.05;;;13.70;99.90;;;;;;4959505;28;20857;-76
2023/01/01 00:18:53;;;;;;;204.02;189.52;;;13.70;99.90;;;;;;4981830;28;20066;-77
2023/01/01 00:21:18;;;;;;;457.52;424.17;;;13.70;99.90;;;;;;4954223;28;20058;-76
2023/01/01 00:23:44;;;;;;;116.50;108.60;;;13.70;99.90;;;;;;4996393;28;20046;-76
2023/01/01 00:26:12;;;;;;;337.30;314.88;;;13.60;99.90;;;;;;4999292;28;20049;-76
2023/01/01 00:28:38;;;;;;;211.18;195.48;;;13.70;99.90;;;;;;5018557;28;20041;-76
2023/01/01 00:31:11;;;;;;;201.30;187.63;;;13.70;99.90;;;;;;5005689;28;20387;-76
2023/01/01 00:33:37;;;;;;;310.70;279.77;;;13.80;99.90;;;;;;4983882;28;20191;-76
2023/01/01 00:36:07;;;;;;;243.07;227.23;;;13.70;99.90;;;;;;5010022;28;20542;-76
2023/01/01 00:38:34;;;;;;;89.00;83.10;;;13.70;99.90;;;;;;4998677;28;20038;-76
2023/01/01 00:41:00;;;;;;;317.55;292.52;;;13.60;99.90;;;;;;5008744;28;20049;-76
2023/01/01 00:43:26;;;;;;;290.77;266.08;;;13.70;99.90;;;;;;5006189;28;20041;-76
2023/01/01 00:45:51;;;;;;;219.45;205.65;;;13.60;99.90;;;;;;5010215;28;20494;-76
2023/01/01 00:48:18;;;;;;;106.80;98.80;;;13.70;99.90;;;;;;4993593;28;20049;-77
2023/01/01 00:50:44;;;;;;;121.30;113.05;;;13.70;99.90;;;;;;5007081;28;20049;-76
2023/01/01 00:53:10;;;;;;;157.57;146.48;;;13.70;99.90;;;;;;5006168;28;20046;-76
2023/01/01 00:55:37;;;;;;;249.23;231.80;;;13.60;99.90;;;;;;5009843;28;20048;-76
2023/01/01 00:58:03;;;;;;;74.57;68.78;;;13.70;99.90;;;;;;4993407;28;20365;-77
2023/01/01 01:00:29;;;;;;;167.48;156.13;;;13.60;99.90;;;;;;4997233;28;20057;-76
2023/01/01 01:02:54;;;;;;;218.20;202.93;;;13.50;99.90;;;;;;4988660;28;20038;-76
2023/01/01 01:05:20;;;;;;;262.30;244.57;;;13.10;99.90;;;;;;4989159;28;20471;-77
2023/01/01 01:07:45;;;;;;;227.25;212.65;;;13.10;99.90;;;;;;4973699;28;20432;-76
2023/01/01 01:10:11;;;;;;;300.33;282.15;;;13.00;99.90;;;;;;5001907;28;20065;-76
2023/01/01 01:12:37;;;;;;;324.98;304.10;;;13.00;99.90;;;;;;5011565;28;20038;-76
2023/01/01 01:15:04;;;;;;;154.05;143.52;;;13.00;99.90;;;;;;5013955;28;20112;-76
2023/01/01 01:17:30;;;;;;;308.40;286.20;;;13.00;99.90;;;;;;4996316;28;20050;-77
2023/01/01 01:19:56;;;;;;;373.90;344.48;;;13.00;99.90;;;;;;5013732;28;20042;-76
2023/01/01 01:22:21;;;;;;;218.23;204.02;;;13.10;99.90;;;;;;5012155;28;20041;-76
2023/01/01 01:24:47;;;;;;;204.93;192.25;;;13.20;99.90;;;;;;5004900;28;20125;-76
2023/01/01 01:27:13;;;;;;;208.88;195.00;;;13.20;99.90;;;;;;4997489;28;20045;-75
2023/01/01 01:29:39;;;;;;;552.80;495.30;;;13.20;99.90;;;;;;5007088;28;20137;-76
2023/01/01 01:32:04;;;;;;;154.13;143.30;;;13.20;99.90;;;;;;4993168;28;20431;-75
2023/01/01 01:34:30;;;;;;;137.07;126.15;;;13.00;99.90;;;;;;5013278;28;20052;-76
2023/01/01 01:36:56;;;;;;;170.02;157.70;;;12.90;99.90;;;;;;4996266;28;20129;-76
2023/01/01 01:39:22;;;;;;;133.68;122.40;;;12.70;99.90;;;;;;5022870;28;20109;-76
2023/01/01 01:41:47;;;;;;;226.70;210.57;;;12.40;99.90;;;;;;5004658;28;20038;-76
2023/01/01 01:44:48;;;;;;;196.57;182.25;;;12.20;99.90;;;;;;4991714;28;20350;-76
2023/01/01 01:47:23;;;;;;;143.77;131.48;;;12.10;99.90;;;;;;4976052;28;20050;-76
2023/01/01 01:49:54;;;;;;;424.60;390.92;;;12.00;99.90;;;;;;5025269;28;20259;-76
2023/01/01 01:52:20;;;;;;;159.48;146.45;;;12.10;99.90;;;;;;4992812;28;20045;-75
2023/01/01 01:54:46;;;;;;;162.03;148.23;;;11.90;99.90;;;;;;4993604;28;20069;-76
2023/01/01 01:57:12;;;;;;;217.20;201.00;;;11.80;99.90;;;;;;5008250;28;20042;-76
2023/01/01 01:59:42;;;;;;;332.70;304.63;;;11.80;99.90;;;;;;5025306;28;20378;-76
2023/01/01 02:02:38;;;;;;;162.00;148.63;;;11.80;99.90;;;;;;5023989;28;20058;-75
2023/01/01 02:05:04;;;;;;;263.23;244.57;;;11.80;99.90;;;;;;4976176;28;20050;-75
2023/01/01 02:07:33;;;;;;;160.27;146.93;;;11.80;99.90;;;;;;5004356;28;20544;-76
2023/01/01 02:10:00;;;;;;;222.10;203.63;;;11.90;99.90;;;;;;4998797;28;20042;-76
2023/01/01 02:12:26;;;;;;;223.00;206.13;;;11.80;99.90;;;;;;5010271;28;20506;-76
2023/01/01 02:14:52;;;;;;;160.80;147.23;;;11.90;99.90;;;;;;4995608;28;20515;-76
2023/01/01 02:17:31;;;;;;;169.40;156.60;;;11.80;99.90;;;;;;4995153;28;20045;-76
2023/01/01 02:20:00;;;;;;;132.07;120.57;;;11.80;99.90;;;;;;5010452;28;20056;-76
2023/01/01 02:22:51;;;;;;;502.80;456.33;;;11.90;99.90;;;;;;5011317;28;20038;-76
2023/01/01 02:25:23;;;;;;;121.65;110.72;;;12.00;99.90;;;;;;5003441;28;20046;-76
2023/01/01 02:28:02;;;;;;;126.67;114.70;;;12.00;99.90;;;;;;4996187;28;20073;-75
2023/01/01 02:30:29;;;;;;;112.30;101.47;;;11.90;99.90;;;;;;4999622;28;20117;-75
2023/01/01 02:33:03;;;;;;;108.63;97.93;;;11.80;99.90;;;;;;4990494;28;20042;-76
2023/01/01 02:35:34;;;;;;;131.17;119.23;;;11.80;99.90;;;;;;4991937;28;20089;-76
2023/01/01 02:38:16;;;;;;;126.93;114.20;;;11.80;99.90;;;;;;4977228;28;20050;-76
2023/01/01 02:40:47;;;;;;;143.20;130.57;;;11.80;99.90;;;;;;4993181;28;20376;-76
2023/01/01 02:43:13;;;;;;;132.02;120.38;;;11.70;99.90;;;;;;4998946;28;20479;-76
2023/01/01 02:45:39;;;;;;;168.20;154.40;;;11.70;99.90;;;;;;5012575;28;20057;-76
2023/01/01 02:48:26;;;;;;;249.57;231.60;;;11.70;99.90;;;;;;4996069;28;20069;-76
2023/01/01 02:50:52;;;;;;;150.23;136.80;;;11.70;99.90;;;;;;5010687;28;20096;-76
2023/01/01 02:53:23;;;;;;;129.13;116.90;;;11.70;99.90;;;;;;5011322;28;20042;-75
2023/01/01 02:56:01;;;;;;;130.82;119.20;;;11.60;99.90;;;;;;5012131;28;20053;-75
2023/01/01 03:01:38;;;;;;;221.37;204.40;;;11.50;99.90;;;;;;5011809;28;20103;-75
2023/01/01 03:04:30;;;;;;;235.67;217.60;;;11.40;99.90;;;;;;5009699;28;20038;-75
2023/01/01 03:06:59;;;;;;;231.17;213.60;;;11.30;99.90;;;;;;4995299;28;20073;-75
2023/01/01 03:09:34;;;;;;;203.10;187.50;;;11.20;99.90;;;;;;5010419;28;20069;-75
2023/01/01 03:12:38;;;;;;;168.10;153.80;;;11.10;99.90;;;;;;5010000;28;20096;-76
2023/01/01 03:15:14;;;;;;;181.07;165.87;;;11.20;99.90;;;;;;5010714;28;20050;-76
2023/01/01 03:17:49;;;;;;;138.63;126.87;;;11.20;99.90;;;;;;4994644;28;20046;-75
2023/01/01 03:20:23;;;;;;;434.47;400.77;;;11.20;99.90;;;;;;5011694;28;20084;-76
2023/01/01 03:22:50;;;;;;;198.30;185.33;;;11.30;99.90;;;;;;5009518;28;20104;-75
2023/01/01 03:25:21;;;;;;;153.27;142.17;;;11.50;99.90;;;;;;5002081;28;20362;-75
2023/01/01 03:28:09;;;;;;;135.93;125.38;;;11.40;99.90;;;;;;4993968;28;20045;-76
2023/01/01 03:30:38;;;;;;;130.07;120.60;;;11.40;99.90;;;;;;5011173;28;20112;-75
2023/01/01 03:33:28;;;;;;;140.90;131.07;;;11.30;99.90;;;;;;4997870;28;20107;-76
2023/01/01 03:36:02;;;;;;;224.10;208.07;;;11.20;99.90;;;;;;5010712;28;20548;-76
2023/01/01 03:38:49;;;;;;;173.67;163.00;;;11.20;99.90;;;;;;4994616;28;20053;-75
2023/01/01 03:41:35;;;;;;;290.17;269.27;;;11.20;99.90;;;;;;5011172;28;20045;-76
2023/01/01 03:44:36;;;;;;;544.93;491.07;;;11.30;99.90;;;;;;5008418;28;20143;-75
2023/01/01 03:47:05;;;;;;;205.68;193.85;;;11.30;99.90;;;;;;4993687;28;20622;-76
2023/01/01 03:49:31;;;;;;;131.17;122.83;;;11.20;99.90;;;;;;5008746;28;20038;-75
2023/01/01 03:52:45;;;;;;;131.57;123.40;;;11.20;99.90;;;;;;5009618;28;20045;-75
2023/01/01 03:55:30;;;;;;;112.63;105.10;;;11.10;99.90;;;;;;4963724;28;20042;-75
2023/01/01 03:58:00;;;;;;;86.23;80.23;;;11.10;99.90;;;;;;4993395;28;20033;-75
2023/01/01 04:00:39;;;;;;;65.37;60.07;;;11.00;99.90;;;;;;5010252;28;20567;-76
2023/01/01 04:03:08;;;;;;;192.63;180.37;;;11.00;99.90;;;;;;5009178;28;20056;-75
2023/01/01 04:05:40;;;;;;;195.20;182.60;;;11.00;99.90;;;;;;5009613;28;20128;-75
2023/01/01 04:08:06;;;;;;;119.07;110.90;;;11.10;99.90;;;;;;4973135;28;20070;-76
2023/01/01 04:10:35;;;;;;;190.77;179.27;;;11.10;99.90;;;;;;4989395;28;20057;-76
2023/01/01 04:13:04;;;;;;;237.73;222.90;;;11.10;99.90;;;;;;4998040;28;20048;-75
2023/01/01 04:15:31;;;;;;;160.47;150.17;;;11.10;99.90;;;;;;5009083;28;20052;-76
2023/01/01 04:17:57;;;;;;;116.03;108.50;;;11.00;99.90;;;;;;4994394;28;20081;-75
2023/01/01 04:20:24;;;;;;;190.37;178.17;;;11.10;99.90;;;;;;5009284;28;20094;-75
2023/01/01 04:22:49;;;;;;;189.63;177.97;;;11.10;99.90;;;;;;5007886;28;20045;-75
2023/01/01 04:25:19;;;;;;;400.43;368.03;;;11.20;99.90;;;;;;5001596;28;20052;-75
2023/01/01 04:27:44;;;;;;;330.50;306.40;;;11.20;99.90;;;;;;4976839;28;20480;-76
2023/01/01 04:30:12;;;;;;;267.37;251.07;;;11.20;99.90;;;;;;5008829;28;20038;-75
2023/01/01 04:32:38;;;;;;;106.23;99.63;;;11.40;99.90;;;;;;4997210;28;20041;-75
2023/01/01 04:35:06;;;;;;;143.87;134.27;;;11.30;99.90;;;;;;5009876;28;20509;-75
2023/01/01 04:37:33;;;;;;;237.27;220.20;;;11.40;99.90;;;;;;4993776;28;20037;-76
2023/01/01 04:39:59;;;;;;;94.27;88.33;;;11.50;99.90;;;;;;5008866;28;20053;-75
2023/01/01 04:42:25;;;;;;;196.57;184.63;;;11.50;99.90;;;;;;5008787;28;20046;-75
2023/01/01 04:44:50;;;;;;;113.67;107.30;;;11.60;99.90;;;;;;5010047;28;20084;-75
2023/01/01 04:47:16;;;;;;;59.87;56.03;;;11.70;99.90;;;;;;4993817;28;20044;-75
2023/01/01 04:49:42;;;;;;;138.70;130.03;;;11.70;99.90;;;;;;5009266;28;20132;-75
2023/01/01 04:52:07;;;;;;;79.90;74.37;;;11.60;99.90;;;;;;5008185;28;20046;-75
2023/01/01 04:54:33;;;;;;;78.27;72.40;;;11.60;99.90;;;;;;4992874;28;20046;-76
2023/01/01 04:56:58;;;;;;;91.47;85.00;;;11.60;99.90;;;;;;4994536;28;20279;-76
2023/01/01 04:59:24;;;;;;;83.40;76.77;;;11.50;99.90;;;;;;5008873;28;20048;-76
2023/01/01 05:01:50;;;;;;;155.77;146.03;;;11.50;99.90;;;;;;5009453;28;20119;-76
2023/01/01 05:04:16;;;;;;;70.27;65.03;;;11.40;99.90;;;;;;5007281;28;20030;-75
2023/01/01 05:06:43;;;;;;;77.67;71.50;;;11.50;99.90;;;;;;4996378;28;20038;-75
2023/01/01 05:09:10;;;;;;;81.60;75.17;;;11.30;99.90;;;;;;5008768;28;20112;-76
2023/01/01 05:11:36;;;;;;;114.03;106.43;;;11.50;99.90;;;;;;4989936;28;20053;-75
2023/01/01 05:14:02;;;;;;;100.13;93.43;;;11.40;99.90;;;;;;5000882;28;20677;-76
2023/01/01 05:16:30;;;;;;;102.13;95.67;;;11.40;99.90;;;;;;4996772;28;20614;-76
2023/01/01 05:18:56;;;;;;;314.07;289.37;;;11.40;99.90;;;;;;5005211;28;20041;-76
2023/01/01 05:21:30;;;;;;;393.97;362.80;;;11.40;99.90;;;;;;4991736;28;20042;-75
2023/01/01 05:23:59;;;;;;;88.97;82.70;;;11.40;99.90;;;;;;5003692;28;20057;-75
2023/01/01 05:26:27;;;;;;;502.50;458.80;;;11.50;99.90;;;;;;4996232;28;20112;-76
2023/01/01 05:28:54;;;;;;;158.30;147.77;;;11.60;99.90;;;;;;5004032;28;20045;-75
2023/01/01 05:31:21;;;;;;;54.60;50.67;;;11.60;99.90;;;;;;5004518;28;20034;-75
2023/01/01 05:33:48;;;;;;;161.00;150.17;;;11.50;99.90;;;;;;5005496;28;20054;-76
2023/01/01 05:36:17;;;;;;;65.87;61.03;;;11.50;99.90;;;;;;4998949;28;20073;-76
2023/01/01 05:38:43;;;;;;;81.93;76.33;;;11.50;99.90;;;;;;5003685;28;20108;-76
2023/01/01 05:41:11;;;;;;;220.83;204.70;;;11.60;99.90;;;;;;5009891;28;20057;-76
2023/01/01 05:43:37;;;;;;;141.47;132.77;;;11.60;99.90;;;;;;5007292;28;20141;-76
2023/01/01 05:46:05;;;;;;;285.00;265.43;;;11.60;99.90;;;;;;5008302;28;20076;-76
2023/01/01 05:48:33;;;;;;;109.00;102.37;;;11.60;99.90;;;;;;4995030;28;20484;-76
2023/01/01 05:51:07;;;;;;;98.83;92.97;;;11.60;99.90;;;;;;5008806;28;20045;-76
2023/01/01 05:53:32;;;;;;;176.77;165.87;;;11.60;99.90;;;;;;5009008;28;20042;-75
2023/01/01 05:55:59;;;;;;;213.50;198.30;;;11.60;99.90;;;;;;5011708;28;20133;-75
2023/01/01 05:58:26;;;;;;;244.87;229.77;;;11.50;99.90;;;;;;4995584;28;20511;-76
2023/01/01 06:00:52;;;;;;;91.23;85.87;;;11.60;99.90;;;;;;5013042;28;20447;-75
2023/01/01 06:03:18;;;;;;;143.57;134.73;;;11.60;99.90;;;;;;5010232;28;20507;-76
2023/01/01 06:05:43;;;;;;;125.20;117.37;;;11.50;99.90;;;;;;5012180;28;20050;-75
2023/01/01 06:08:09;;;;;;;393.37;354.40;;;11.50;99.90;;;;;;4995313;28;20387;-76
2023/01/01 06:10:35;;;;;;;277.20;259.27;;;11.50;99.90;;;;;;5011428;28;20096;-75
2023/01/01 06:13:01;;;;;;;97.13;90.90;;;11.40;99.90;;;;;;5011727;28;20056;-76
2023/01/01 06:15:26;;;;;;;103.13;96.73;;;11.30;99.90;;;;;;4995315;28;20053;-75
2023/01/01 06:17:52;;;;;;;74.20;69.30;;;11.30;99.90;;;;;;4996475;28;20052;-76
2023/01/01 06:20:18;;;;;;;47.97;44.37;;;11.30;99.90;;;;;;5012281;28;20138;-76
2023/01/01 06:22:45;;;;;;;109.93;102.50;;;11.30;99.90;;;;;;5005830;28;20649;-76
2023/01/01 06:25:11;;;;;;;148.60;138.53;;;11.30;99.90;;;;;;5001958;28;20052;-76
2023/01/01 06:27:36;;;;;;;199.13;185.43;;;11.30;99.90;;;;;;4976964;28;20046;-75
2023/01/01 06:30:07;;;;;;;108.00;101.17;;;11.20;99.90;;;;;;4992220;28;20618;-76
2023/01/01 06:32:32;;;;;;;174.67;160.83;;;11.20;99.90;;;;;;4995903;28;20125;-76
2023/01/01 06:34:58;;;;;;;102.27;95.50;;;11.10;99.90;;;;;;5000379;28;20387;-76
2023/01/01 06:37:26;;;;;;;133.87;125.47;;;11.10;99.90;;;;;;4959574;28;20504;-76
2023/01/01 06:39:51;;;;;;;199.73;188.23;;;11.10;99.90;;;;;;5006444;28;20090;-76
2023/01/01 06:42:17;;;;;;;157.20;147.97;;;11.10;99.90;;;;;;4991685;28;20108;-75
2023/01/01 06:44:43;;;;;;;87.00;81.47;;;11.10;99.90;;;;;;4991644;28;20065;-76
2023/01/01 06:47:08;;;;;;;29.70;27.30;;;11.10;99.90;;;;;;4976975;28;20061;-75
2023/01/01 06:49:34;;;;;;;116.97;109.97;;;11.10;99.90;;;;;;4990909;28;20105;-76
2023/01/01 06:52:00;;;;;;;81.50;76.10;;;11.10;99.90;;;;;;4975502;28;20056;-75
2023/01/01 06:54:25;;;;;;;48.83;44.63;;;11.00;99.90;;;;;;4991320;28;20077;-76
2023/01/01 06:56:51;;;;;;;76.20;71.20;;;11.00;99.90;;;;;;4977269;28;20046;-76
2023/01/01 06:59:17;;;;;;;45.13;41.50;;;10.90;99.90;;;;;;4991302;28;20085;-76
2023/01/01 07:01:42;;;;;;;68.80;64.40;;;11.00;99.90;;;;;;4992815;28;20107;-76
2023/01/01 07:04:13;;;;;;;145.77;136.50;;;11.00;99.90;;;;;;4989878;28;20096;-76
2023/01/01 07:06:40;;;;;;;260.98;240.98;;;11.00;99.90;;;;;;4978074;28;20178;-76
2023/01/01 07:09:06;;;;;;;203.77;190.53;;;10.90;99.90;;;;;;4970289;28;20137;-76
2023/01/01 07:11:33;;;;;;;29.60;26.57;;;10.80;99.90;;;;;;4991672;28;20057;-75
2023/01/01 07:13:59;;;;;;;54.77;50.57;;;10.90;99.90;;;;;;5006416;28;20065;-76
2023/01/01 07:16:25;;;;;;;69.13;63.87;;;10.80;99.90;;;;;;4998354;28;20045;-76
2023/01/01 07:18:51;;;;;;;64.37;59.80;;;10.80;99.90;;;;;;5007392;28;20376;-76
2023/01/01 07:21:30;;;;;;;188.40;176.13;;;10.80;99.90;;;;;;5011238;28;20605;-76
2023/01/01 07:23:58;;;;;;;95.53;89.00;;;10.70;99.90;;;;;;4985205;28;20055;-76
2023/01/01 07:26:25;;;;;;;82.67;76.23;;;10.60;99.90;;;;;;4979890;28;20053;-75
2023/01/01 07:28:51;;;;;;;145.40;135.13;;;10.60;99.90;;;;;;4986767;28;20432;-76
2023/01/01 07:31:16;;;;;;;63.53;58.47;;;10.60;99.90;;;;;;4989854;28;20045;-76
2023/01/01 07:33:42;;;;;;;94.43;87.30;;;10.60;99.90;;;;;;4990712;28;20050;-76
2023/01/01 07:36:08;;;;;;;86.80;79.73;;;10.60;99.90;;;;;;4981919;28;20050;-76
2023/01/01 07:38:34;;;;;;;553.23;505.27;;;10.60;99.90;;;;;;4961757;28;20129;-76
2023/01/01 07:40:59;;;;;;;81.63;74.87;;;10.60;99.90;;;;;;4991527;28;20046;-76
2023/01/01 07:43:28;;;;;;;189.67;175.47;;;10.60;99.90;;;;;;4990154;28;20049;-76
2023/01/01 07:45:54;;;;;;;144.00;132.37;;;10.60;99.90;;;;;;4990810;28;20052;-76
2023/01/01 07:48:19;;;;;;;56.70;51.43;;;10.60;99.90;;;;;;4974581;28;20404;-76
2023/01/01 07:50:45;;;;;;;234.23;214.57;;;10.60;99.90;;;;;;4985521;28;20031;-76
2023/01/01 07:53:11;;;;;;;58.50;53.13;;;10.50;99.90;;;;;;4977803;28;20041;-76
2023/01/01 07:55:37;;;;;;;40.00;35.83;;;10.60;99.90;;;;;;4987405;28;20058;-76
2023/01/01 07:58:03;;;;;;;41.87;28.67;;;10.50;99.90;;;;;;4961106;28;20377;-76
2023/01/01 08:00:28;;;;;;;102.67;94.97;;;10.40;99.90;;;;;;4977556;28;20507;-76
2023/01/01 08:02:54;;;;;;;174.10;160.73;;;10.40;99.90;;;;;;4962820;28;20367;-76
2023/01/01 08:05:20;;;;;;;95.73;88.20;;;10.50;99.90;;;;;;4973421;28;20427;-76
2023/01/01 08:07:49;;;;;;;40.20;28.27;;;10.50;99.90;;;;;;4958030;28;20054;-76
2023/01/01 08:10:17;;;;;;;46.03;41.80;;;10.40;99.90;;;;;;4970533;28;20039;-76
2023/01/01 08:12:42;;;;;;;73.60;67.17;;;10.40;99.90;;;;;;4957453;28;20038;-76
2023/01/01 08:15:09;;;;;;;54.00;48.93;;;10.50;99.90;;;;;;4988148;28;20522;-76
2023/01/01 08:17:35;;;;;;;105.07;97.43;;;10.50;99.90;;;;;;4968720;28;20046;-76
2023/01/01 08:20:01;;;;;;;133.73;124.40;;;10.40;99.90;;;;;;4986789;28;20092;-76
2023/01/01 08:22:26;;;;;;;242.43;223.47;;;10.50;99.90;;;;;;4984522;28;20058;-76
2023/01/01 08:24:52;;;;;;;41.67;37.80;;;10.50;99.90;;;;;;4986098;28;20054;-76
2023/01/01 08:27:17;;;;;;;132.80;122.07;;;10.50;99.90;;;;;;4973424;28;20039;-76
2023/01/01 08:29:44;;;;;;;40.80;28.67;;;10.50;99.90;;;;;;4987544;28;20053;-76
2023/01/01 08:32:11;;;;;;;81.27;74.43;;;10.50;99.90;;;;;;4996478;28;20050;-75
2023/01/01 08:34:37;;;;;;;148.70;136.83;;;10.50;99.90;;;;;;4971316;28;20055;-76
2023/01/01 08:37:03;;;;;;;62.50;56.23;;;10.60;99.90;;;;;;4956793;28;20867;-76
2023/01/01 08:39:29;;;;;;;41.03;32.03;;;10.50;99.90;;;;;;4967822;28;20401;-76
2023/01/01 08:41:54;;;;;;;81.50;74.23;;;10.50;99.90;;;;;;4970200;28;20057;-76
2023/01/01 08:44:20;;;;;;;43.43;36.63;;;10.50;99.90;;;;;;4985857;28;20038;-76
2023/01/01 08:46:46;;;;;;;42.17;37.20;;;10.50;99.90;;;;;;4954584;28;20045;-76
2023/01/01 08:49:11;;;;;;;84.17;75.90;;;10.50;99.90;;;;;;4966839;28;20053;-76
2023/01/01 08:51:40;;;;;;;123.73;113.07;;;10.50;99.90;;;;;;4969579;28;20393;-76
2023/01/01 08:54:06;;;;;;;41.07;32.27;;;10.60;99.90;;;;;;4968891;28;20065;-76
2023/01/01 08:56:32;;;;;;;41.23;33.17;;;10.60;99.90;;;;;;4956305;28;20504;-76
2023/01/01 08:58:58;;;;;;;239.67;221.37;;;10.50;99.90;;;;;;4967917;28;20043;-75
2023/01/01 09:01:26;;;;;;;59.53;53.67;;;10.50;99.90;;;;;;4968884;28;20456;-76
2023/01/01 09:03:52;;;;;;;66.80;60.77;;;10.50;99.90;;;;;;4967677;28;20512;-76
2023/01/01 09:06:18;;;;;;;100.30;92.47;;;10.50;99.90;;;;;;4973614;28;20035;-76
2023/01/01 09:08:44;;;;;;;68.33;61.97;;;10.60;99.90;;;;;;4979533;28;20042;-76
2023/01/01 09:11:24;;;;;;;59.10;52.70;;;10.50;99.90;;;;;;4988292;28;20070;-76
2023/01/01 09:13:50;;;;;;;138.03;127.23;;;10.50;99.90;;;;;;4987228;28;20062;-75
2023/01/01 09:16:17;;;;;;;62.40;56.13;;;10.50;99.90;;;;;;4979212;28;20560;-76
2023/01/01 09:18:42;;;;;;;61.57;55.13;;;10.60;99.90;;;;;;4983233;28;20104;-76
2023/01/01 09:21:08;;;;;;;114.67;105.13;;;10.60;99.90;;;;;;4981875;28;20093;-76
2023/01/01 09:23:34;;;;;;;75.57;68.43;;;10.60;99.90;;;;;;4991637;28;20137;-76
2023/01/01 09:26:04;;;;;;;97.40;87.23;;;10.50;99.90;;;;;;4982902;28;20046;-76
2023/01/01 09:28:30;;;;;;;143.05;131.65;;;10.60;99.90;;;;;;4965813;28;20050;-76
2023/01/01 09:30:56;;;;;;;193.37;177.13;;;10.60;99.90;;;;;;4993241;28;20165;-76
2023/01/01 09:33:22;;;;;;;236.90;218.77;;;10.50;99.90;;;;;;5001870;28;20046;-76
2023/01/01 09:35:47;;;;;;;42.70;27.77;;;10.70;99.90;;;;;;4997362;28;20050;-76
2023/01/01 09:38:13;;;;;;;140.77;129.07;;;10.60;99.90;;;;;;4989290;28;20129;-77
2023/01/01 09:41:09;;;;;;;65.63;58.93;;;10.60;99.90;;;;;;5008317;28;20373;-76
2023/01/01 09:44:00;;;;;;;32.63;23.27;;;10.70;99.90;;;;;;5009545;28;20046;-76
2023/01/01 09:46:25;;;;;;;146.70;134.93;;;10.60;99.90;;;;;;4997548;28;21014;-76
2023/01/01 09:49:00;;;;;;;126.70;117.97;;;10.70;99.90;;;;;;4999939;28;20089;-77
2023/01/01 09:51:32;;;;;;;96.50;88.23;;;10.70;99.90;;;;;;5022050;28;20041;-76
2023/01/01 09:54:03;;;;;;;97.63;90.17;;;10.70;99.90;;;;;;5005199;28;20045;-76
2023/01/01 09:56:33;;;;;;;114.53;105.65;;;10.70;99.90;;;;;;4996147;28;20990;-76
2023/01/01 09:58:58;;;;;;;71.93;65.47;;;10.70;99.90;;;;;;5005407;28;20042;-76
2023/01/01 10:01:24;;;;;;;75.53;69.20;;;10.80;99.90;;;;;;5000410;28;20037;-76
2023/01/01 10:03:56;;;;;;;183.53;170.57;;;10.80;99.90;;;;;;4990539;28;20073;-76
2023/01/01 10:06:31;;;;;;;63.50;57.50;;;10.80;99.90;;;;;;4974372;28;20561;-76
2023/01/01 10:09:21;;;;;;;261.40;239.93;;;10.80;99.90;;;;;;4995970;28;20047;-76
2023/01/01 10:12:10;;;;;;;109.53;100.83;;;10.90;99.90;;;;;;4987712;28;20532;-76
2023/01/01 10:14:38;;;;;;;92.17;84.93;;;11.00;99.90;;;;;;5002593;28;20137;-76
2023/01/01 10:17:16;;;;;;;71.90;65.60;;;11.20;99.90;;;;;;4989397;28;20057;-75
2023/01/01 10:19:48;;;;;;;177.00;164.70;;;11.20;99.90;;;;;;4979478;28;20108;-76
2023/01/01 10:22:36;;;;;;;196.13;182.82;;;11.40;99.90;;;;;;4980515;28;20046;-76
2023/01/01 10:25:12;;;;;;;90.30;83.40;;;11.40;99.90;;;;;;4980267;28;20046;-76
2023/01/01 10:27:47;;;;;;;98.87;91.73;;;11.40;99.90;;;;;;4952997;28;20050;-76
2023/01/01 10:30:21;;;;;;;83.63;77.77;;;11.30;99.90;;;;;;4984152;28;20126;-76
2023/01/01 10:32:50;;;;;;;80.83;74.33;;;11.20;99.90;;;;;;4969450;28;20055;-76
2023/01/01 10:35:21;;;;;;;67.97;61.83;;;11.20;99.90;;;;;;4983832;28;20449;-76
2023/01/01 10:37:48;;;;;;;;;;;11.10;99.90;;;;;;4968710;28;20062;-76
2023/01/01 10:40:20;;;;;;;49.80;44.63;;;11.00;99.90;;;;;;4968904;28;20204;-76
2023/01/01 10:42:51;;;;;;;92.75;85.82;;;11.00;99.90;;;;;;4972164;28;20351;-76
2023/01/01 10:45:28;;;;;;;161.87;150.53;;;11.00;99.90;;;;;;4986358;28;20054;-76
2023/01/01 10:48:19;;;;;;;126.77;117.67;;;11.00;99.90;;;;;;4965162;28;20364;-76
2023/01/01 10:50:59;;;;;;;78.47;71.50;;;11.00;99.90;;;;;;4967456;28;20502;-76
2023/01/01 10:53:34;;;;;;;121.82;112.63;;;11.00;99.90;;;;;;4967932;28;20194;-76
2023/01/01 10:56:14;;;;;;;69.77;63.90;;;11.00;99.90;;;;;;4983434;28;20047;-76
2023/01/01 10:58:57;;;;;;;71.67;65.93;;;11.10;99.90;;;;;;4961614;28;20058;-76
2023/01/01 11:01:25;;;;;;;60.93;55.27;;;11.20;99.90;;;;;;4967377;28;20113;-76
2023/01/01 11:04:01;;;;;;;103.63;96.83;;;11.30;99.90;;;;;;4968396;28;20133;-76
2023/01/01 11:06:34;;;;;;;64.07;59.13;;;11.40;99.90;;;;;;4956185;28;20505;-76
2023/01/01 11:09:18;;;;;;;125.37;116.83;;;11.30;99.90;;;;;;4948633;28;20081;-76
2023/01/01 11:11:47;;;;;;;134.97;126.07;;;11.30;99.90;;;;;;4966765;28;20051;-76
2023/01/01 11:14:24;;;;;;;106.77;99.03;;;11.30;99.90;;;;;;4968394;28;20441;-76
2023/01/01 11:16:51;;;;;;;85.90;80.00;;;11.40;99.90;;;;;;4951324;28;20503;-76
2023/01/01 11:19:23;;;;;;;49.63;45.63;;;11.40;99.90;;;;;;4967508;28;20090;-76
2023/01/01 11:21:49;;;;;;;85.57;79.30;;;11.30;99.90;;;;;;4983424;28;20058;-77
2023/01/01 11:24:24;;;;;;;269.07;250.80;;;11.40;99.90;;;;;;4971068;28;20058;-76
2023/01/01 11:26:51;;;;;;;101.60;94.30;;;11.40;99.90;;;;;;4952803;28;20142;-76
2023/01/01 11:29:23;;;;;;;256.67;236.83;;;11.40;99.90;;;;;;4981998;28;20493;-76
2023/01/01 11:31:50;;;;;;;45.13;41.07;;;11.30;99.90;;;;;;4969130;28;20051;-76
2023/01/01 11:34:30;;;;;;;125.20;116.80;;;11.40;99.90;;;;;;4967200;28;20409;-76
2023/01/01 11:37:32;;;;;;;53.20;48.87;;;11.30;99.90;;;;;;4951841;28;20134;-76
2023/01/01 11:40:00;;;;;;;237.53;221.27;;;11.10;99.90;;;;;;4926406;28;20063;-75
2023/01/01 11:42:36;;;;;;;82.90;76.63;;;11.10;99.90;;;;;;4968737;28;20058;-75
2023/01/01 11:45:13;;;;;;;53.03;48.73;;;11.10;99.90;;;;;;4967720;28;20397;-76
2023/01/01 11:47:41;;;;;;;129.77;121.30;;;11.10;99.90;;;;;;4966357;28;20050;-76
2023/01/01 11:50:13;;;;;;;102.33;95.60;;;11.10;99.90;;;;;;4968133;28;20444;-76
2023/01/01 11:52:42;;;;;;;105.27;98.13;;;11.00;99.90;;;;;;4981285;28;20146;-76
2023/01/01 11:55:30;;;;;;;46.87;43.23;;;11.00;99.90;;;;;;4984848;28;20415;-76
2023/01/01 11:58:05;;;;;;;314.87;283.67;;;11.20;99.90;;;;;;4947184;28;20050;-77
2023/01/01 12:00:35;;;;;;;98.67;91.53;;;11.10;99.90;;;;;;4966449;28;20132;-76
2023/01/01 12:03:08;;;;;;;161.20;151.20;;;11.20;99.90;;;;;;4966737;28;20051;-77
2023/01/01 12:05:53;;;;;;;41.83;37.80;;;11.20;99.90;;;;;;4982421;28;20432;-76
2023/01/01 12:08:51;;;;;;;80.37;74.43;;;11.20;99.90;;;;;;4952435;28;20287;-76
2023/01/01 12:11:42;;;;;;;147.53;136.60;;;11.20;99.90;;;;;;4952472;28;20098;-76
2023/01/01 12:14:22;;;;;;;39.67;29.00;;;11.30;99.90;;;;;;4967027;28;20046;-76
2023/01/01 12:17:08;;;;;;;107.13;99.50;;;11.30;99.90;;;;;;4962686;28;20100;-76
2023/01/01 12:19:38;;;;;;;65.63;60.40;;;11.30;99.90;;;;;;5006356;28;20045;-76
2023/01/01 12:22:13;;;;;;;148.03;138.33;;;11.30;99.90;;;;;;5005975;28;20042;-75
2023/01/01 12:24:39;;;;;;;91.80;84.90;;;11.20;99.90;;;;;;4998206;28;20463;-76
2023/01/01 12:27:42;;;;;;;308.80;286.00;;;11.20;99.90;;;;;;4973952;28;20057;-75
2023/01/01 12:30:23;;;;;;;75.47;69.07;;;11.30;99.90;;;;;;5010354;28;20463;-76
2023/01/01 12:32:54;;;;;;;47.95;44.05;;;11.40;99.90;;;;;;5005325;28;20134;-76
2023/01/01 12:35:19;;;;;;;;;;;11.40;99.90;;;;;;5005543;28;20058;-76